sensor_id;sensor_type;location;lat;lon;timestamp;P1;durP1;ratioP1;P2;durP2;ratioP2
69358;SDS011;56520;49.066;8.660;2023-02-28T00:00:22;2.35;;;1.38;;
69358;SDS011;56520;49.066;8.660;2023-02-28T00:02:48;1.85;;;1.00;;
69358;SDS011;56520;49.066;8.660;2023-02-28T00:05:16;2.53;;;1.35;;
69358;SDS011;56520;49.066;8.660;2023-02-28T00:07:44;6.50;;;1.58;;
69358;SDS011;56520;49.066;8.660;2023-02-28T00:10:10;1.75;;;0.90;;
69358;SDS011;56520;49.066;8.660;2023-02-28T00:12:38;3.53;;;1.90;;
69358;SDS011;56520;49.066;8.660;2023-02-28T00:15:08;1.65;;;0.95;;
69358;SDS011;56520;49.066;8.660;2023-02-28T00:17:35;3.28;;;1.20;;
69358;SDS011;56520;49.066;8.660;2023-02-28T00:20:00;3.53;;;1.63;;
69358;SDS011;56520;49.066;8.660;2023-02-28T00:22:26;1.95;;;1.25;;
69358;SDS011;56520;49.066;8.660;2023-02-28T00:24:52;2.67;;;1.33;;
69358;SDS011;56520;49.066;8.660;2023-02-28T00:27:18;3.55;;;1.50;;
69358;SDS011;56520;49.066;8.660;2023-02-28T00:29:43;4.68;;;1.40;;
69358;SDS011;56520;49.066;8.660;2023-02-28T00:32:11;2.92;;;1.42;;
69358;SDS011;56520;49.066;8.660;2023-02-28T00:34:36;3.22;;;1.33;;
69358;SDS011;56520;49.066;8.660;2023-02-28T00:39:29;2.35;;;1.35;;
69358;SDS011;56520;49.066;8.660;2023-02-28T00:41:55;4.00;;;1.40;;
69358;SDS011;56520;49.066;8.660;2023-02-28T00:44:20;2.33;;;1.23;;
69358;SDS011;56520;49.066;8.660;2023-02-28T00:46:46;1.70;;;1.13;;
69358;SDS011;56520;49.066;8.660;2023-02-28T00:49:11;1.92;;;1.02;;
69358;SDS011;56520;49.066;8.660;2023-02-28T00:51:37;4.05;;;1.92;;
69358;SDS011;56520;49.066;8.660;2023-02-28T00:54:02;3.50;;;1.55;;
69358;SDS011;56520;49.066;8.660;2023-02-28T00:56:30;3.85;;;1.98;;
69358;SDS011;56520;49.066;8.660;2023-02-28T00:58:56;2.42;;;1.25;;
69358;SDS011;56520;49.066;8.660;2023-02-28T01:01:21;2.92;;;1.25;;
69358;SDS011;56520;49.066;8.660;2023-02-28T01:03:46;3.50;;;1.58;;
69358;SDS011;56520;49.066;8.660;2023-02-28T01:06:12;1.58;;;1.00;;
69358;SDS011;56520;49.066;8.660;2023-02-28T01:08:37;2.38;;;1.15;;
69358;SDS011;56520;49.066;8.660;2023-02-28T01:11:10;1.73;;;1.10;;
69358;SDS011;56520;49.066;8.660;2023-02-28T01:13:37;2.00;;;1.15;;
69358;SDS011;56520;49.066;8.660;2023-02-28T01:16:03;3.25;;;1.38;;
69358;SDS011;56520;49.066;8.660;2023-02-28T01:18:28;1.70;;;0.82;;
69358;SDS011;56520;49.066;8.660;2023-02-28T01:20:54;2.00;;;1.17;;
69358;SDS011;56520;49.066;8.660;2023-02-28T01:23:20;2.33;;;1.20;;
69358;SDS011;56520;49.066;8.660;2023-02-28T01:25:51;3.00;;;1.30;;
69358;SDS011;56520;49.066;8.660;2023-02-28T01:28:17;2.25;;;1.05;;
69358;SDS011;56520;49.066;8.660;2023-02-28T01:30:46;2.25;;;1.23;;
69358;SDS011;56520;49.066;8.660;2023-02-28T01:33:12;3.45;;;1.55;;
69358;SDS011;56520;49.066;8.660;2023-02-28T01:35:38;3.60;;;1.75;;
69358;SDS011;56520;49.066;8.660;2023-02-28T01:38:03;5.55;;;1.40;;
69358;SDS011;56520;49.066;8.660;2023-02-28T01:40:29;3.42;;;1.45;;
69358;SDS011;56520;49.066;8.660;2023-02-28T01:42:54;3.03;;;1.55;;
69358;SDS011;56520;49.066;8.660;2023-02-28T01:45:22;2.17;;;1.23;;
69358;SDS011;56520;49.066;8.660;2023-02-28T01:47:52;2.90;;;1.33;;
69358;SDS011;56520;49.066;8.660;2023-02-28T01:50:23;1.70;;;0.90;;
69358;SDS011;56520;49.066;8.660;2023-02-28T01:52:54;4.53;;;1.58;;
69358;SDS011;56520;49.066;8.660;2023-02-28T01:55:23;3.53;;;1.52;;
69358;SDS011;56520;49.066;8.660;2023-02-28T01:57:54;2.28;;;1.42;;
69358;SDS011;56520;49.066;8.660;2023-02-28T02:00:23;2.78;;;1.50;;
69358;SDS011;56520;49.066;8.660;2023-02-28T02:02:53;2.53;;;1.35;;
69358;SDS011;56520;49.066;8.660;2023-02-28T02:05:21;3.33;;;1.30;;
69358;SDS011;56520;49.066;8.660;2023-02-28T02:07:50;3.88;;;1.50;;
69358;SDS011;56520;49.066;8.660;2023-02-28T02:10:20;2.78;;;1.40;;
69358;SDS011;56520;49.066;8.660;2023-02-28T02:18:36;3.33;;;1.50;;
69358;SDS011;56520;49.066;8.660;2023-02-28T02:24:24;3.95;;;1.38;;
69358;SDS011;56520;49.066;8.660;2023-02-28T02:39:24;3.08;;;1.50;;
69358;SDS011;56520;49.066;8.660;2023-02-28T02:44:15;2.05;;;1.05;;
69358;SDS011;56520;49.066;8.660;2023-02-28T02:47:09;2.55;;;1.30;;
69358;SDS011;56520;49.066;8.660;2023-02-28T02:49:42;3.53;;;1.40;;
69358;SDS011;56520;49.066;8.660;2023-02-28T02:52:12;2.72;;;1.20;;
69358;SDS011;56520;49.066;8.660;2023-02-28T02:54:41;3.53;;;1.70;;
69358;SDS011;56520;49.066;8.660;2023-02-28T02:57:19;3.00;;;1.58;;
69358;SDS011;56520;49.066;8.660;2023-02-28T02:59:47;3.88;;;1.65;;
69358;SDS011;56520;49.066;8.660;2023-02-28T03:02:14;1.90;;;1.10;;
69358;SDS011;56520;49.066;8.660;2023-02-28T03:04:46;2.85;;;1.33;;
69358;SDS011;56520;49.066;8.660;2023-02-28T03:07:16;2.28;;;1.17;;
69358;SDS011;56520;49.066;8.660;2023-02-28T03:09:49;3.63;;;1.75;;
69358;SDS011;56520;49.066;8.660;2023-02-28T03:12:16;3.30;;;1.75;;
69358;SDS011;56520;49.066;8.660;2023-02-28T03:20:16;2.28;;;1.15;;
69358;SDS011;56520;49.066;8.660;2023-02-28T03:26:06;3.38;;;1.52;;
69358;SDS011;56520;49.066;8.660;2023-02-28T03:28:38;2.38;;;0.82;;
69358;SDS011;56520;49.066;8.660;2023-02-28T03:31:15;5.10;;;2.05;;
69358;SDS011;56520;49.066;8.660;2023-02-28T03:34:04;1.52;;;1.05;;
69358;SDS011;56520;49.066;8.660;2023-02-28T03:39:21;2.72;;;1.25;;
69358;SDS011;56520;49.066;8.660;2023-02-28T03:42:02;3.40;;;1.52;;
69358;SDS011;56520;49.066;8.660;2023-02-28T03:44:35;3.95;;;1.52;;
69358;SDS011;56520;49.066;8.660;2023-02-28T03:47:07;3.70;;;1.63;;
69358;SDS011;56520;49.066;8.660;2023-02-28T03:52:17;5.60;;;2.33;;
69358;SDS011;56520;49.066;8.660;2023-02-28T03:54:48;2.80;;;1.45;;
69358;SDS011;56520;49.066;8.660;2023-02-28T04:03:05;3.97;;;1.33;;
69358;SDS011;56520;49.066;8.660;2023-02-28T04:05:31;2.97;;;1.73;;
69358;SDS011;56520;49.066;8.660;2023-02-28T04:08:06;2.85;;;1.65;;
69358;SDS011;56520;49.066;8.660;2023-02-28T04:10:33;5.88;;;1.80;;
69358;SDS011;56520;49.066;8.660;2023-02-28T04:12:58;2.67;;;1.35;;
69358;SDS011;56520;49.066;8.660;2023-02-28T04:15:24;3.40;;;1.45;;
69358;SDS011;56520;49.066;8.660;2023-02-28T04:17:50;7.85;;;2.42;;
69358;SDS011;56520;49.066;8.660;2023-02-28T04:20:15;3.47;;;1.60;;
69358;SDS011;56520;49.066;8.660;2023-02-28T04:22:41;3.00;;;1.73;;
69358;SDS011;56520;49.066;8.660;2023-02-28T04:25:07;4.45;;;1.70;;
69358;SDS011;56520;49.066;8.660;2023-02-28T04:27:33;3.17;;;1.60;;
69358;SDS011;56520;49.066;8.660;2023-02-28T04:29:59;3.70;;;1.52;;
69358;SDS011;56520;49.066;8.660;2023-02-28T04:32:24;2.90;;;1.45;;
69358;SDS011;56520;49.066;8.660;2023-02-28T04:34:50;4.05;;;1.48;;
69358;SDS011;56520;49.066;8.660;2023-02-28T04:37:15;3.80;;;1.45;;
69358;SDS011;56520;49.066;8.660;2023-02-28T04:39:41;4.10;;;1.98;;
69358;SDS011;56520;49.066;8.660;2023-02-28T04:42:07;3.05;;;1.60;;
69358;SDS011;56520;49.066;8.660;2023-02-28T04:44:32;2.13;;;1.30;;
69358;SDS011;56520;49.066;8.660;2023-02-28T04:46:58;6.15;;;1.80;;
69358;SDS011;56520;49.066;8.660;2023-02-28T04:49:23;2.65;;;1.20;;
69358;SDS011;56520;49.066;8.660;2023-02-28T04:51:49;3.35;;;1.33;;
69358;SDS011;56520;49.066;8.660;2023-02-28T04:54:15;2.55;;;1.40;;
69358;SDS011;56520;49.066;8.660;2023-02-28T04:56:41;4.55;;;1.88;;
69358;SDS011;56520;49.066;8.660;2023-02-28T04:59:07;3.13;;;1.48;;
69358;SDS011;56520;49.066;8.660;2023-02-28T05:01:33;6.13;;;1.95;;
69358;SDS011;56520;49.066;8.660;2023-02-28T05:04:00;3.42;;;1.65;;
69358;SDS011;56520;49.066;8.660;2023-02-28T05:06:27;3.50;;;1.80;;
69358;SDS011;56520;49.066;8.660;2023-02-28T05:08:54;4.75;;;2.33;;
69358;SDS011;56520;49.066;8.660;2023-02-28T05:11:20;4.75;;;2.03;;
69358;SDS011;56520;49.066;8.660;2023-02-28T05:13:51;3.13;;;1.45;;
69358;SDS011;56520;49.066;8.660;2023-02-28T05:16:17;3.58;;;1.63;;
69358;SDS011;56520;49.066;8.660;2023-02-28T05:18:43;4.47;;;1.35;;
69358;SDS011;56520;49.066;8.660;2023-02-28T05:21:19;6.05;;;1.95;;
69358;SDS011;56520;49.066;8.660;2023-02-28T05:23:50;3.20;;;1.83;;
69358;SDS011;56520;49.066;8.660;2023-02-28T05:26:16;3.05;;;1.50;;
69358;SDS011;56520;49.066;8.660;2023-02-28T05:28:41;3.70;;;1.73;;
69358;SDS011;56520;49.066;8.660;2023-02-28T05:31:08;3.60;;;1.38;;
69358;SDS011;56520;49.066;8.660;2023-02-28T05:33:38;3.95;;;1.63;;
69358;SDS011;56520;49.066;8.660;2023-02-28T05:36:04;3.55;;;1.40;;
69358;SDS011;56520;49.066;8.660;2023-02-28T05:40:56;3.15;;;1.75;;
69358;SDS011;56520;49.066;8.660;2023-02-28T05:43:22;3.67;;;1.48;;
69358;SDS011;56520;49.066;8.660;2023-02-28T05:45:47;3.20;;;1.55;;
69358;SDS011;56520;49.066;8.660;2023-02-28T05:48:13;3.53;;;1.83;;
69358;SDS011;56520;49.066;8.660;2023-02-28T05:50:38;4.05;;;1.80;;
69358;SDS011;56520;49.066;8.660;2023-02-28T05:53:04;4.00;;;1.48;;
69358;SDS011;56520;49.066;8.660;2023-02-28T05:55:30;3.80;;;1.58;;
69358;SDS011;56520;49.066;8.660;2023-02-28T05:57:55;3.65;;;1.75;;
69358;SDS011;56520;49.066;8.660;2023-02-28T06:00:24;4.10;;;1.77;;
69358;SDS011;56520;49.066;8.660;2023-02-28T06:02:49;4.68;;;2.22;;
69358;SDS011;56520;49.066;8.660;2023-02-28T06:05:16;2.83;;;1.65;;
69358;SDS011;56520;49.066;8.660;2023-02-28T06:10:09;2.13;;;1.30;;
69358;SDS011;56520;49.066;8.660;2023-02-28T06:12:36;3.00;;;1.45;;
69358;SDS011;56520;49.066;8.660;2023-02-28T06:15:02;2.50;;;1.35;;
69358;SDS011;56520;49.066;8.660;2023-02-28T06:17:27;3.38;;;1.50;;
69358;SDS011;56520;49.066;8.660;2023-02-28T06:19:53;2.75;;;1.65;;
69358;SDS011;56520;49.066;8.660;2023-02-28T06:22:18;2.75;;;1.38;;
69358;SDS011;56520;49.066;8.660;2023-02-28T06:24:44;3.17;;;1.60;;
69358;SDS011;56520;49.066;8.660;2023-02-28T06:27:09;5.43;;;1.63;;
69358;SDS011;56520;49.066;8.660;2023-02-28T06:29:35;3.80;;;1.85;;
69358;SDS011;56520;49.066;8.660;2023-02-28T06:32:01;4.68;;;1.98;;
69358;SDS011;56520;49.066;8.660;2023-02-28T06:34:26;3.42;;;1.77;;
69358;SDS011;56520;49.066;8.660;2023-02-28T06:36:52;4.65;;;2.13;;
69358;SDS011;56520;49.066;8.660;2023-02-28T06:39:18;2.95;;;1.40;;
69358;SDS011;56520;49.066;8.660;2023-02-28T06:41:43;4.95;;;2.13;;
69358;SDS011;56520;49.066;8.660;2023-02-28T06:44:17;3.78;;;1.67;;
69358;SDS011;56520;49.066;8.660;2023-02-28T06:46:43;3.13;;;1.50;;
69358;SDS011;56520;49.066;8.660;2023-02-28T06:49:10;3.38;;;1.77;;
69358;SDS011;56520;49.066;8.660;2023-02-28T06:51:36;3.33;;;1.60;;
69358;SDS011;56520;49.066;8.660;2023-02-28T06:54:04;4.60;;;2.38;;
69358;SDS011;56520;49.066;8.660;2023-02-28T06:56:33;4.88;;;2.58;;
69358;SDS011;56520;49.066;8.660;2023-02-28T06:58:59;5.35;;;2.28;;
69358;SDS011;56520;49.066;8.660;2023-02-28T07:01:25;3.00;;;1.55;;
69358;SDS011;56520;49.066;8.660;2023-02-28T07:03:52;4.00;;;1.95;;
69358;SDS011;56520;49.066;8.660;2023-02-28T07:06:19;3.63;;;1.55;;
69358;SDS011;56520;49.066;8.660;2023-02-28T07:08:47;5.18;;;2.05;;
69358;SDS011;56520;49.066;8.660;2023-02-28T07:11:13;3.42;;;1.63;;
69358;SDS011;56520;49.066;8.660;2023-02-28T07:13:39;6.38;;;2.22;;
69358;SDS011;56520;49.066;8.660;2023-02-28T07:16:06;5.68;;;1.90;;
69358;SDS011;56520;49.066;8.660;2023-02-28T07:18:35;4.13;;;1.70;;
69358;SDS011;56520;49.066;8.660;2023-02-28T07:21:01;4.10;;;1.70;;
69358;SDS011;56520;49.066;8.660;2023-02-28T07:23:28;4.47;;;1.90;;
69358;SDS011;56520;49.066;8.660;2023-02-28T07:25:54;4.47;;;2.20;;
69358;SDS011;56520;49.066;8.660;2023-02-28T07:28:19;3.40;;;1.77;;
69358;SDS011;56520;49.066;8.660;2023-02-28T07:30:45;6.38;;;2.60;;
69358;SDS011;56520;49.066;8.660;2023-02-28T07:33:10;3.13;;;1.50;;
69358;SDS011;56520;49.066;8.660;2023-02-28T07:35:36;4.90;;;1.95;;
69358;SDS011;56520;49.066;8.660;2023-02-28T07:38:02;6.35;;;2.63;;
69358;SDS011;56520;49.066;8.660;2023-02-28T07:40:28;3.63;;;1.83;;
69358;SDS011;56520;49.066;8.660;2023-02-28T07:42:53;4.35;;;1.92;;
69358;SDS011;56520;49.066;8.660;2023-02-28T07:45:19;6.07;;;2.65;;
69358;SDS011;56520;49.066;8.660;2023-02-28T07:47:45;3.72;;;1.88;;
69358;SDS011;56520;49.066;8.660;2023-02-28T07:50:11;5.82;;;2.10;;
69358;SDS011;56520;49.066;8.660;2023-02-28T07:52:39;5.50;;;2.33;;
69358;SDS011;56520;49.066;8.660;2023-02-28T07:55:05;6.28;;;3.33;;
69358;SDS011;56520;49.066;8.660;2023-02-28T07:57:32;5.40;;;2.40;;
69358;SDS011;56520;49.066;8.660;2023-02-28T07:59:57;4.10;;;2.10;;
69358;SDS011;56520;49.066;8.660;2023-02-28T08:02:23;5.68;;;2.20;;
69358;SDS011;56520;49.066;8.660;2023-02-28T08:04:48;5.03;;;1.92;;
69358;SDS011;56520;49.066;8.660;2023-02-28T08:07:14;4.97;;;2.13;;
69358;SDS011;56520;49.066;8.660;2023-02-28T08:09:41;4.10;;;2.20;;
69358;SDS011;56520;49.066;8.660;2023-02-28T08:12:07;5.03;;;2.40;;
69358;SDS011;56520;49.066;8.660;2023-02-28T08:14:34;4.43;;;1.83;;
69358;SDS011;56520;49.066;8.660;2023-02-28T08:17:00;5.20;;;2.30;;
69358;SDS011;56520;49.066;8.660;2023-02-28T08:19:25;4.70;;;2.20;;
69358;SDS011;56520;49.066;8.660;2023-02-28T08:21:51;6.05;;;2.83;;
69358;SDS011;56520;49.066;8.660;2023-02-28T08:24:16;5.60;;;2.25;;
69358;SDS011;56520;49.066;8.660;2023-02-28T08:26:42;7.57;;;3.13;;
69358;SDS011;56520;49.066;8.660;2023-02-28T08:29:07;5.55;;;2.53;;
69358;SDS011;56520;49.066;8.660;2023-02-28T08:31:33;5.05;;;2.50;;
69358;SDS011;56520;49.066;8.660;2023-02-28T08:34:00;5.13;;;2.25;;
69358;SDS011;56520;49.066;8.660;2023-02-28T08:36:30;7.50;;;2.40;;
69358;SDS011;56520;49.066;8.660;2023-02-28T08:38:56;6.13;;;2.30;;
69358;SDS011;56520;49.066;8.660;2023-02-28T08:41:22;5.22;;;2.20;;
69358;SDS011;56520;49.066;8.660;2023-02-28T08:43:48;5.93;;;2.22;;
69358;SDS011;56520;49.066;8.660;2023-02-28T08:46:13;4.20;;;2.03;;
69358;SDS011;56520;49.066;8.660;2023-02-28T08:48:39;7.15;;;2.95;;
69358;SDS011;56520;49.066;8.660;2023-02-28T08:51:06;4.70;;;2.00;;
69358;SDS011;56520;49.066;8.660;2023-02-28T08:53:34;3.78;;;1.63;;
69358;SDS011;56520;49.066;8.660;2023-02-28T08:56:22;5.47;;;2.10;;
69358;SDS011;56520;49.066;8.660;2023-02-28T08:58:48;5.20;;;2.28;;
69358;SDS011;56520;49.066;8.660;2023-02-28T09:01:15;6.78;;;2.78;;
69358;SDS011;56520;49.066;8.660;2023-02-28T09:03:43;3.95;;;1.88;;
69358;SDS011;56520;49.066;8.660;2023-02-28T09:06:09;6.03;;;2.70;;
69358;SDS011;56520;49.066;8.660;2023-02-28T09:08:35;5.18;;;2.35;;
69358;SDS011;56520;49.066;8.660;2023-02-28T09:13:28;6.25;;;2.60;;
69358;SDS011;56520;49.066;8.660;2023-02-28T09:15:54;4.82;;;2.10;;
69358;SDS011;56520;49.066;8.660;2023-02-28T09:18:22;6.05;;;2.55;;
69358;SDS011;56520;49.066;8.660;2023-02-28T09:20:48;5.63;;;2.50;;
69358;SDS011;56520;49.066;8.660;2023-02-28T09:23:13;6.47;;;2.35;;
69358;SDS011;56520;49.066;8.660;2023-02-28T09:25:45;7.53;;;2.90;;
69358;SDS011;56520;49.066;8.660;2023-02-28T09:28:17;6.38;;;2.53;;
69358;SDS011;56520;49.066;8.660;2023-02-28T09:30:44;6.80;;;2.95;;
69358;SDS011;56520;49.066;8.660;2023-02-28T09:33:11;5.72;;;2.53;;
69358;SDS011;56520;49.066;8.660;2023-02-28T09:35:37;6.13;;;2.50;;
69358;SDS011;56520;49.066;8.660;2023-02-28T09:38:03;6.47;;;2.72;;
69358;SDS011;56520;49.066;8.660;2023-02-28T09:40:29;7.18;;;2.63;;
69358;SDS011;56520;49.066;8.660;2023-02-28T09:42:55;10.05;;;2.70;;
69358;SDS011;56520;49.066;8.660;2023-02-28T09:45:27;8.27;;;3.33;;
69358;SDS011;56520;49.066;8.660;2023-02-28T09:47:59;6.93;;;2.83;;
69358;SDS011;56520;49.066;8.660;2023-02-28T09:50:46;7.25;;;3.03;;
69358;SDS011;56520;49.066;8.660;2023-02-28T09:53:30;7.28;;;2.90;;
69358;SDS011;56520;49.066;8.660;2023-02-28T09:56:01;7.38;;;2.90;;
69358;SDS011;56520;49.066;8.660;2023-02-28T09:58:35;8.85;;;3.50;;
69358;SDS011;56520;49.066;8.660;2023-02-28T10:01:09;7.93;;;3.00;;
69358;SDS011;56520;49.066;8.660;2023-02-28T10:06:18;6.40;;;2.88;;
69358;SDS011;56520;49.066;8.660;2023-02-28T10:11:26;6.65;;;2.70;;
69358;SDS011;56520;49.066;8.660;2023-02-28T10:22:51;6.28;;;2.75;;
69358;SDS011;56520;49.066;8.660;2023-02-28T10:25:19;7.88;;;3.22;;
69358;SDS011;56520;49.066;8.660;2023-02-28T10:28:00;6.18;;;2.85;;
69358;SDS011;56520;49.066;8.660;2023-02-28T10:30:30;7.18;;;3.15;;
69358;SDS011;56520;49.066;8.660;2023-02-28T10:35:24;7.45;;;2.80;;
69358;SDS011;56520;49.066;8.660;2023-02-28T10:37:55;6.15;;;2.75;;
69358;SDS011;56520;49.066;8.660;2023-02-28T10:45:22;11.07;;;4.07;;
69358;SDS011;56520;49.066;8.660;2023-02-28T10:47:49;8.55;;;3.53;;
69358;SDS011;56520;49.066;8.660;2023-02-28T10:55:41;6.18;;;2.75;;
69358;SDS011;56520;49.066;8.660;2023-02-28T11:00:45;12.15;;;2.40;;
69358;SDS011;56520;49.066;8.660;2023-02-28T11:05:58;5.85;;;2.50;;
69358;SDS011;56520;49.066;8.660;2023-02-28T11:08:28;7.75;;;3.17;;
69358;SDS011;56520;49.066;8.660;2023-02-28T11:13:24;5.40;;;2.40;;
69358;SDS011;56520;49.066;8.660;2023-02-28T11:15:57;9.75;;;2.58;;
69358;SDS011;56520;49.066;8.660;2023-02-28T11:18:47;6.90;;;3.15;;
69358;SDS011;56520;49.066;8.660;2023-02-28T11:21:18;7.80;;;3.30;;
69358;SDS011;56520;49.066;8.660;2023-02-28T11:23:51;5.85;;;2.63;;
69358;SDS011;56520;49.066;8.660;2023-02-28T11:34:34;6.78;;;2.65;;
69358;SDS011;56520;49.066;8.660;2023-02-28T11:37:01;8.30;;;3.28;;
69358;SDS011;56520;49.066;8.660;2023-02-28T11:39:30;6.80;;;2.60;;
69358;SDS011;56520;49.066;8.660;2023-02-28T11:45:01;7.20;;;3.47;;
69358;SDS011;56520;49.066;8.660;2023-02-28T11:50:27;7.03;;;3.00;;
69358;SDS011;56520;49.066;8.660;2023-02-28T11:57:03;8.32;;;3.00;;
69358;SDS011;56520;49.066;8.660;2023-02-28T12:05:44;7.07;;;3.17;;
69358;SDS011;56520;49.066;8.660;2023-02-28T12:11:31;15.02;;;5.40;;
69358;SDS011;56520;49.066;8.660;2023-02-28T12:14:25;7.03;;;3.30;;
69358;SDS011;56520;49.066;8.660;2023-02-28T12:22:35;6.90;;;3.30;;
69358;SDS011;56520;49.066;8.660;2023-02-28T12:25:16;9.30;;;3.42;;
69358;SDS011;56520;49.066;8.660;2023-02-28T12:27:48;9.00;;;3.08;;
69358;SDS011;56520;49.066;8.660;2023-02-28T12:32:44;6.30;;;2.67;;
69358;SDS011;56520;49.066;8.660;2023-02-28T12:35:14;7.80;;;3.28;;
69358;SDS011;56520;49.066;8.660;2023-02-28T12:37:57;10.82;;;3.72;;
69358;SDS011;56520;49.066;8.660;2023-02-28T12:40:47;8.45;;;3.22;;
69358;SDS011;56520;49.066;8.660;2023-02-28T12:43:39;8.73;;;3.70;;
69358;SDS011;56520;49.066;8.660;2023-02-28T12:51:17;9.23;;;4.30;;
69358;SDS011;56520;49.066;8.660;2023-02-28T13:07:23;13.73;;;3.30;;
69358;SDS011;56520;49.066;8.660;2023-02-28T13:09:59;9.02;;;4.47;;
69358;SDS011;56520;49.066;8.660;2023-02-28T13:12:27;8.07;;;3.70;;
69358;SDS011;56520;49.066;8.660;2023-02-28T13:15:04;7.68;;;3.42;;
69358;SDS011;56520;49.066;8.660;2023-02-28T13:17:37;7.22;;;3.13;;
69358;SDS011;56520;49.066;8.660;2023-02-28T13:20:14;7.03;;;3.10;;
69358;SDS011;56520;49.066;8.660;2023-02-28T13:22:52;8.82;;;3.28;;
69358;SDS011;56520;49.066;8.660;2023-02-28T13:27:54;9.07;;;3.92;;
69358;SDS011;56520;49.066;8.660;2023-02-28T13:33:31;9.25;;;3.55;;
69358;SDS011;56520;49.066;8.660;2023-02-28T13:36:22;8.98;;;3.80;;
69358;SDS011;56520;49.066;8.660;2023-02-28T13:38:55;8.27;;;3.15;;
69358;SDS011;56520;49.066;8.660;2023-02-28T13:57:20;7.75;;;3.50;;
69358;SDS011;56520;49.066;8.660;2023-02-28T14:05:32;7.72;;;3.78;;
69358;SDS011;56520;49.066;8.660;2023-02-28T14:08:03;8.90;;;3.78;;
69358;SDS011;56520;49.066;8.660;2023-02-28T14:10:39;10.00;;;4.15;;
69358;SDS011;56520;49.066;8.660;2023-02-28T14:16:26;8.07;;;4.15;;
69358;SDS011;56520;49.066;8.660;2023-02-28T14:19:00;7.30;;;3.13;;
69358;SDS011;56520;49.066;8.660;2023-02-28T14:21:34;9.95;;;3.60;;
69358;SDS011;56520;49.066;8.660;2023-02-28T14:33:08;8.05;;;3.92;;
69358;SDS011;56520;49.066;8.660;2023-02-28T14:38:17;7.85;;;3.42;;
69358;SDS011;56520;49.066;8.660;2023-02-28T14:40:49;8.00;;;3.55;;
69358;SDS011;56520;49.066;8.660;2023-02-28T14:43:23;8.07;;;3.65;;
69358;SDS011;56520;49.066;8.660;2023-02-28T14:45:51;7.60;;;3.80;;
69358;SDS011;56520;49.066;8.660;2023-02-28T14:48:25;7.90;;;3.38;;
69358;SDS011;56520;49.066;8.660;2023-02-28T14:50:56;9.77;;;3.63;;
69358;SDS011;56520;49.066;8.660;2023-02-28T14:53:25;8.82;;;3.83;;
69358;SDS011;56520;49.066;8.660;2023-02-28T14:55:53;7.85;;;3.72;;
69358;SDS011;56520;49.066;8.660;2023-02-28T14:58:23;9.20;;;4.07;;
69358;SDS011;56520;49.066;8.660;2023-02-28T15:00:52;9.30;;;3.55;;
69358;SDS011;56520;49.066;8.660;2023-02-28T15:06:18;7.95;;;3.35;;
69358;SDS011;56520;49.066;8.660;2023-02-28T15:08:42;9.20;;;3.40;;
69358;SDS011;56520;49.066;8.660;2023-02-28T15:11:18;8.43;;;3.65;;
69358;SDS011;56520;49.066;8.660;2023-02-28T15:13:48;9.70;;;3.00;;
69358;SDS011;56520;49.066;8.660;2023-02-28T15:16:32;7.93;;;3.60;;
69358;SDS011;56520;49.066;8.660;2023-02-28T15:19:03;8.70;;;3.72;;
69358;SDS011;56520;49.066;8.660;2023-02-28T15:21:37;7.82;;;3.75;;
69358;SDS011;56520;49.066;8.660;2023-02-28T15:26:58;8.38;;;3.67;;
69358;SDS011;56520;49.066;8.660;2023-02-28T15:29:27;8.30;;;3.22;;
69358;SDS011;56520;49.066;8.660;2023-02-28T15:39:56;9.55;;;3.83;;
69358;SDS011;56520;49.066;8.660;2023-02-28T15:42:29;9.50;;;4.13;;
69358;SDS011;56520;49.066;8.660;2023-02-28T15:44:56;8.75;;;3.88;;
69358;SDS011;56520;49.066;8.660;2023-02-28T15:47:23;8.38;;;3.80;;
69358;SDS011;56520;49.066;8.660;2023-02-28T15:52:44;8.57;;;3.55;;
69358;SDS011;56520;49.066;8.660;2023-02-28T15:55:22;8.15;;;3.60;;
69358;SDS011;56520;49.066;8.660;2023-02-28T15:57:52;8.80;;;4.22;;
69358;SDS011;56520;49.066;8.660;2023-02-28T16:00:21;7.13;;;3.55;;
69358;SDS011;56520;49.066;8.660;2023-02-28T16:02:48;8.55;;;3.38;;
69358;SDS011;56520;49.066;8.660;2023-02-28T16:05:18;7.63;;;3.35;;
69358;SDS011;56520;49.066;8.660;2023-02-28T16:07:53;8.85;;;4.00;;
69358;SDS011;56520;49.066;8.660;2023-02-28T16:10:20;10.40;;;4.03;;
69358;SDS011;56520;49.066;8.660;2023-02-28T16:12:49;8.48;;;3.50;;
69358;SDS011;56520;49.066;8.660;2023-02-28T16:17:47;7.40;;;3.40;;
69358;SDS011;56520;49.066;8.660;2023-02-28T16:22:39;6.28;;;2.90;;
69358;SDS011;56520;49.066;8.660;2023-02-28T16:25:07;8.07;;;3.42;;
69358;SDS011;56520;49.066;8.660;2023-02-28T16:27:38;7.47;;;3.47;;
69358;SDS011;56520;49.066;8.660;2023-02-28T16:32:32;8.75;;;3.10;;
69358;SDS011;56520;49.066;8.660;2023-02-28T16:35:01;6.80;;;2.90;;
69358;SDS011;56520;49.066;8.660;2023-02-28T16:39:52;9.63;;;3.35;;
69358;SDS011;56520;49.066;8.660;2023-02-28T16:44:49;8.13;;;3.17;;
69358;SDS011;56520;49.066;8.660;2023-02-28T16:49:41;6.50;;;2.72;;
69358;SDS011;56520;49.066;8.660;2023-02-28T16:52:08;6.10;;;2.65;;
69358;SDS011;56520;49.066;8.660;2023-02-28T16:54:34;6.80;;;2.58;;
69358;SDS011;56520;49.066;8.660;2023-02-28T16:57:00;10.70;;;3.28;;
69358;SDS011;56520;49.066;8.660;2023-02-28T17:01:55;9.52;;;2.92;;
69358;SDS011;56520;49.066;8.660;2023-02-28T17:04:27;7.85;;;3.22;;
69358;SDS011;56520;49.066;8.660;2023-02-28T17:06:53;7.82;;;3.50;;
69358;SDS011;56520;49.066;8.660;2023-02-28T17:11:48;6.78;;;3.00;;
69358;SDS011;56520;49.066;8.660;2023-02-28T17:16:39;6.45;;;3.08;;
69358;SDS011;56520;49.066;8.660;2023-02-28T17:19:07;6.88;;;2.47;;
69358;SDS011;56520;49.066;8.660;2023-02-28T17:21:36;8.80;;;3.30;;
69358;SDS011;56520;49.066;8.660;2023-02-28T17:24:02;11.02;;;3.30;;
69358;SDS011;56520;49.066;8.660;2023-02-28T17:26:31;5.55;;;2.75;;
69358;SDS011;56520;49.066;8.660;2023-02-28T17:28:59;7.18;;;2.78;;
69358;SDS011;56520;49.066;8.660;2023-02-28T17:31:25;7.47;;;3.20;;
69358;SDS011;56520;49.066;8.660;2023-02-28T17:33:52;8.02;;;2.92;;
69358;SDS011;56520;49.066;8.660;2023-02-28T17:36:22;9.13;;;3.70;;
69358;SDS011;56520;49.066;8.660;2023-02-28T17:38:51;8.38;;;3.15;;
69358;SDS011;56520;49.066;8.660;2023-02-28T17:41:18;7.22;;;3.20;;
69358;SDS011;56520;49.066;8.660;2023-02-28T17:43:43;6.05;;;2.67;;
69358;SDS011;56520;49.066;8.660;2023-02-28T17:46:14;7.60;;;3.67;;
69358;SDS011;56520;49.066;8.660;2023-02-28T17:48:43;9.07;;;3.15;;
69358;SDS011;56520;49.066;8.660;2023-02-28T17:51:10;7.35;;;3.10;;
69358;SDS011;56520;49.066;8.660;2023-02-28T17:53:37;7.80;;;3.40;;
69358;SDS011;56520;49.066;8.660;2023-02-28T17:56:03;10.10;;;3.97;;
69358;SDS011;56520;49.066;8.660;2023-02-28T17:58:28;9.43;;;3.17;;
69358;SDS011;56520;49.066;8.660;2023-02-28T18:00:55;6.25;;;3.25;;
69358;SDS011;56520;49.066;8.660;2023-02-28T18:03:21;8.00;;;3.35;;
69358;SDS011;56520;49.066;8.660;2023-02-28T18:05:48;6.90;;;3.22;;
69358;SDS011;56520;49.066;8.660;2023-02-28T18:08:14;7.10;;;3.10;;
69358;SDS011;56520;49.066;8.660;2023-02-28T18:10:40;6.45;;;2.72;;
69358;SDS011;56520;49.066;8.660;2023-02-28T18:13:05;7.70;;;3.25;;
69358;SDS011;56520;49.066;8.660;2023-02-28T18:17:56;8.52;;;2.15;;
69358;SDS011;56520;49.066;8.660;2023-02-28T18:20:22;5.45;;;2.30;;
69358;SDS011;56520;49.066;8.660;2023-02-28T18:25:13;6.90;;;2.58;;
69358;SDS011;56520;49.066;8.660;2023-02-28T18:27:40;7.75;;;2.75;;
69358;SDS011;56520;49.066;8.660;2023-02-28T18:30:18;10.20;;;4.20;;
69358;SDS011;56520;49.066;8.660;2023-02-28T18:32:46;9.02;;;2.83;;
69358;SDS011;56520;49.066;8.660;2023-02-28T18:35:12;9.18;;;3.40;;
69358;SDS011;56520;49.066;8.660;2023-02-28T18:37:37;7.90;;;3.28;;
69358;SDS011;56520;49.066;8.660;2023-02-28T18:40:03;7.38;;;3.55;;
69358;SDS011;56520;49.066;8.660;2023-02-28T18:42:30;5.75;;;2.13;;
69358;SDS011;56520;49.066;8.660;2023-02-28T18:44:55;7.88;;;3.55;;